Santo, Luganville Santo-Pekoa International Airport (NVSS)

NameLuganville Santo-Pekoa International Airport
CitySanto
CountryVanuatu
ICAONVSS
IATASON
Altitude56 m
CoordinatesGoogle Map
Live Air TrafficLiveATC.net
METARNVSS 270500Z 14006KT 9999 SCT020 31/25 Q1005
2020-02-27 05:00:00 Wind: Southeast (140°) 3.09 m/s - Visibility: > 10000 m - Temperature: 31 °C - Dew point: 25 °C - Humidity: 70.4% - Pressure: 1005 hPa

Sorry, no flights used the airport in this database.